createdAt,value
2022-12-04T00:01:25.949Z,0.98
2022-12-04T00:03:58.732Z,1.13
2022-12-04T00:06:26.937Z,0.94
2022-12-04T00:08:55.342Z,0.89
2022-12-04T00:11:25.957Z,0.88
2022-12-04T00:13:53.913Z,0.81
2022-12-04T00:16:26.259Z,0.81
2022-12-04T00:18:54.747Z,0.75
2022-12-04T00:21:24.798Z,0.79
2022-12-04T00:23:53.605Z,0.76
2022-12-04T00:26:24.708Z,0.71
2022-12-04T00:28:53.057Z,0.73
2022-12-04T00:31:23.350Z,0.79
2022-12-04T00:33:51.104Z,0.96
2022-12-04T00:36:21.100Z,1.00
2022-12-04T00:38:48.939Z,0.95
2022-12-04T00:41:19.437Z,0.88
2022-12-04T00:43:47.107Z,0.96
2022-12-04T00:46:15.216Z,1.13
2022-12-04T00:48:43.262Z,1.14
2022-12-04T00:51:23.614Z,1.20
2022-12-04T00:53:52.775Z,1.14
2022-12-04T00:56:27.924Z,1.04
2022-12-04T00:58:57.744Z,0.93
2022-12-04T01:01:26.465Z,0.86
2022-12-04T01:03:55.393Z,0.82
2022-12-04T01:06:29.307Z,0.78
2022-12-04T01:08:58.845Z,0.78
2022-12-04T01:11:28.207Z,0.77
2022-12-04T01:13:57.138Z,0.85
2022-12-04T01:16:31.711Z,0.77
2022-12-04T01:19:00.027Z,0.84
2022-12-04T01:21:27.683Z,0.78
2022-12-04T01:23:55.386Z,0.76
2022-12-04T01:26:23.186Z,0.74
2022-12-04T01:28:50.796Z,0.76
2022-12-04T01:31:20.972Z,0.74
2022-12-04T01:33:49.202Z,0.78
2022-12-04T01:36:22.957Z,0.79
2022-12-04T01:38:51.487Z,0.79
2022-12-04T01:41:23.177Z,0.83
2022-12-04T01:44:15.293Z,0.85
2022-12-04T01:46:45.316Z,0.89
2022-12-04T01:49:34.198Z,0.87
2022-12-04T01:52:07.433Z,0.82
2022-12-04T01:54:40.128Z,0.80
2022-12-04T01:57:13.338Z,0.80
2022-12-04T01:59:45.846Z,0.83
2022-12-04T02:02:17.359Z,0.82
2022-12-04T02:04:45.154Z,0.85
2022-12-04T02:07:12.746Z,0.81
2022-12-04T02:09:42.342Z,0.76
2022-12-04T02:12:50.462Z,0.87
2022-12-04T02:16:02.388Z,0.89
2022-12-04T02:18:47.598Z,0.88
2022-12-04T02:21:37.548Z,1.08
2022-12-04T02:24:50.006Z,1.09
2022-12-04T02:27:39.549Z,1.18
2022-12-04T02:30:13.434Z,1.06
2022-12-04T02:32:47.108Z,1.00
2022-12-04T02:35:25.518Z,1.08
2022-12-04T02:38:23.696Z,1.11
2022-12-04T02:41:05.989Z,1.30
2022-12-04T02:43:40.418Z,1.12
2022-12-04T02:46:22.835Z,1.11
2022-12-04T02:48:53.573Z,1.16
2022-12-04T02:51:25.265Z,1.31
2022-12-04T02:53:58.278Z,1.40
2022-12-04T02:56:31.744Z,1.33
2022-12-04T02:59:04.515Z,1.16
2022-12-04T03:01:36.376Z,1.20
2022-12-04T03:04:27.463Z,1.24
2022-12-04T03:07:10.026Z,1.22
2022-12-04T03:09:49.837Z,1.22
2022-12-04T03:12:43.695Z,1.22
2022-12-04T03:15:38.016Z,1.47
2022-12-04T03:18:09.487Z,1.64
2022-12-04T03:20:38.763Z,1.70
2022-12-04T03:23:18.053Z,1.73
2022-12-04T03:26:00.746Z,1.64
2022-12-04T03:28:38.788Z,1.52
2022-12-04T03:31:09.896Z,1.57
2022-12-04T03:33:47.826Z,1.66
2022-12-04T03:36:23.958Z,1.55
2022-12-04T03:39:03.127Z,1.53
2022-12-04T03:41:50.124Z,1.46
2022-12-04T03:44:30.020Z,1.49
2022-12-04T03:47:19.486Z,1.48
2022-12-04T03:50:10.293Z,1.58
2022-12-04T03:52:51.300Z,1.75
2022-12-04T03:55:27.494Z,1.84
2022-12-04T03:58:01.234Z,1.66
2022-12-04T04:00:31.007Z,1.70
2022-12-04T04:03:28.652Z,1.69
2022-12-04T04:06:06.050Z,1.79
2022-12-04T04:08:39.123Z,1.87
2022-12-04T04:11:27.896Z,1.97
2022-12-04T04:14:25.843Z,1.75
2022-12-04T04:17:20.749Z,1.73
2022-12-04T04:20:11.111Z,1.72
2022-12-04T04:22:58.785Z,1.76
2022-12-04T04:25:28.176Z,1.70
2022-12-04T04:27:58.419Z,1.67
2022-12-04T04:30:29.667Z,1.67
2022-12-04T04:33:06.389Z,1.69
2022-12-04T04:36:02.926Z,1.70
2022-12-04T04:38:56.007Z,1.66
2022-12-04T04:41:32.953Z,1.70
2022-12-04T04:44:21.403Z,1.68
2022-12-04T04:46:55.197Z,1.74
2022-12-04T04:49:25.838Z,1.78
2022-12-04T04:51:54.927Z,1.77
2022-12-04T04:54:23.877Z,1.76
2022-12-04T04:56:51.338Z,1.73
2022-12-04T04:59:18.848Z,1.80
2022-12-04T05:01:47.427Z,1.78
2022-12-04T05:04:15.047Z,1.80
2022-12-04T05:06:42.543Z,1.82
2022-12-04T05:09:10.075Z,1.83
2022-12-04T05:11:37.568Z,1.85
2022-12-04T05:18:18.562Z,1.95
2022-12-04T05:20:46.133Z,2.05
2022-12-04T05:23:13.630Z,2.09
2022-12-04T05:25:41.161Z,2.06
2022-12-04T05:28:08.790Z,2.06
2022-12-04T05:30:36.434Z,2.10
2022-12-04T05:33:04.215Z,2.09
2022-12-04T05:35:32.185Z,2.16
2022-12-04T05:37:59.794Z,2.17
2022-12-04T05:40:27.298Z,2.18
2022-12-04T05:42:54.845Z,2.20
2022-12-04T05:45:22.365Z,2.20
2022-12-04T05:47:49.954Z,2.19
2022-12-04T05:50:17.476Z,2.19
2022-12-04T05:52:45.016Z,2.20
2022-12-04T05:55:12.564Z,2.33
2022-12-04T05:57:40.032Z,2.37
2022-12-04T06:00:08.279Z,2.43
2022-12-04T06:02:38.668Z,2.67
2022-12-04T06:05:06.463Z,2.77
2022-12-04T06:07:34.022Z,2.74
2022-12-04T06:10:01.540Z,2.82
2022-12-04T06:12:30.552Z,2.82
2022-12-04T06:14:58.263Z,2.88
2022-12-04T06:17:25.874Z,2.94
2022-12-04T06:19:54.023Z,3.02
2022-12-04T06:22:22.104Z,2.96
2022-12-04T06:24:49.614Z,3.04
2022-12-04T06:27:32.493Z,3.04
2022-12-04T06:30:00.063Z,3.11
2022-12-04T06:32:27.723Z,3.07
2022-12-04T06:34:55.735Z,3.14
2022-12-04T06:37:25.446Z,3.15
2022-12-04T06:39:53.224Z,3.20
2022-12-04T06:42:20.825Z,3.18
2022-12-04T06:44:49.583Z,3.06
2022-12-04T06:47:17.112Z,3.16
2022-12-04T06:49:46.285Z,3.18
2022-12-04T06:52:13.812Z,3.13
2022-12-04T06:54:41.410Z,3.18
2022-12-04T06:57:08.903Z,3.06
2022-12-04T06:59:36.575Z,3.04
2022-12-04T07:02:04.130Z,3.09
2022-12-04T07:04:31.629Z,3.22
2022-12-04T07:06:59.159Z,3.36
2022-12-04T07:09:26.732Z,3.43
2022-12-04T07:11:55.205Z,3.48
2022-12-04T07:14:22.704Z,3.49
2022-12-04T07:16:50.359Z,3.50
2022-12-04T07:19:17.870Z,3.52
2022-12-04T07:21:45.473Z,3.51
2022-12-04T07:24:17.824Z,3.58
2022-12-04T07:26:46.262Z,3.61
2022-12-04T07:29:13.829Z,3.61
2022-12-04T07:31:41.508Z,3.59
2022-12-04T07:34:09.144Z,3.62
2022-12-04T07:36:39.378Z,3.53
2022-12-04T07:39:07.206Z,3.64
2022-12-04T07:41:35.233Z,3.72
2022-12-04T07:44:07.403Z,3.75
2022-12-04T07:46:34.951Z,3.72
2022-12-04T07:49:02.582Z,3.74
2022-12-04T07:51:30.381Z,3.68
2022-12-04T07:54:03.158Z,3.79
2022-12-04T07:56:32.413Z,3.74
2022-12-04T07:59:00.701Z,3.71
2022-12-04T08:01:28.499Z,3.77
2022-12-04T08:03:58.561Z,3.79
2022-12-04T08:06:28.544Z,3.75
2022-12-04T08:08:57.613Z,3.82
2022-12-04T08:11:27.451Z,3.95
2022-12-04T08:14:01.010Z,3.93
2022-12-04T08:16:31.578Z,3.90
2022-12-04T08:19:00.696Z,3.99
2022-12-04T08:21:31.759Z,3.98
2022-12-04T08:24:01.138Z,4.04
2022-12-04T08:26:31.722Z,4.01
2022-12-04T08:29:01.535Z,4.04
2022-12-04T08:31:31.112Z,4.08
2022-12-04T08:34:00.539Z,4.19
2022-12-04T08:36:28.421Z,4.17
2022-12-04T08:38:56.491Z,4.18
2022-12-04T08:41:26.293Z,4.24
2022-12-04T08:43:55.459Z,4.30
2022-12-04T08:46:24.272Z,4.31
2022-12-04T08:48:52.129Z,4.37
2022-12-04T08:51:28.959Z,4.37
2022-12-04T08:54:01.298Z,4.45
2022-12-04T08:56:30.495Z,4.41
2022-12-04T08:58:59.115Z,4.55
2022-12-04T09:01:27.784Z,4.55
2022-12-04T09:03:55.682Z,4.53
2022-12-04T09:06:24.061Z,4.60
2022-12-04T09:08:56.798Z,4.60
2022-12-04T09:11:26.929Z,4.69
2022-12-04T09:13:56.063Z,4.65
2022-12-04T09:16:25.281Z,4.59
2022-12-04T09:18:53.260Z,4.72
2022-12-04T09:21:22.192Z,4.74
2022-12-04T09:23:50.718Z,4.76
2022-12-04T09:26:27.361Z,4.77
2022-12-04T09:28:56.361Z,4.76
2022-12-04T09:31:24.821Z,4.77
2022-12-04T09:33:52.990Z,4.72
2022-12-04T09:36:21.110Z,4.77
2022-12-04T09:38:51.317Z,4.79
2022-12-04T09:41:37.122Z,4.82
2022-12-04T09:44:48.751Z,4.82
2022-12-04T09:47:37.712Z,4.72
2022-12-04T09:50:20.922Z,4.58
2022-12-04T09:53:01.556Z,4.67
2022-12-04T09:55:52.203Z,4.56
2022-12-04T09:58:28.881Z,4.64
2022-12-04T10:00:58.743Z,4.62
2022-12-04T10:03:29.919Z,4.82
2022-12-04T10:06:18.451Z,4.74
2022-12-04T10:08:50.733Z,4.82
2022-12-04T10:11:26.593Z,4.93
2022-12-04T10:14:20.922Z,4.78
2022-12-04T10:17:03.616Z,4.86
2022-12-04T10:19:38.842Z,4.73
2022-12-04T10:22:42.887Z,4.89
2022-12-04T10:25:23.226Z,4.89
2022-12-04T10:28:09.226Z,4.97
2022-12-04T10:30:41.311Z,4.98
2022-12-04T10:33:40.019Z,4.99
2022-12-04T10:36:14.653Z,5.16
2022-12-04T10:38:56.671Z,5.09
2022-12-04T10:41:40.777Z,5.10
2022-12-04T10:44:13.160Z,5.07
2022-12-04T10:46:45.710Z,4.98
2022-12-04T10:49:21.940Z,5.04
2022-12-04T10:51:49.961Z,5.06
2022-12-04T10:54:27.445Z,5.00
2022-12-04T10:56:54.980Z,5.11
2022-12-04T10:59:23.289Z,5.16
2022-12-04T11:01:52.861Z,5.25
2022-12-04T11:04:26.143Z,5.28
2022-12-04T11:07:49.062Z,5.25
2022-12-04T11:10:38.919Z,5.11
2022-12-04T11:13:15.835Z,5.17
2022-12-04T11:15:52.619Z,5.16
2022-12-04T11:18:32.358Z,5.12
2022-12-04T11:21:03.848Z,5.12
2022-12-04T11:23:51.534Z,5.13
2022-12-04T11:26:33.988Z,5.10
2022-12-04T11:29:02.569Z,5.04
2022-12-04T11:31:31.498Z,5.13
2022-12-04T11:34:05.180Z,5.17
2022-12-04T11:36:36.898Z,5.25
2022-12-04T11:39:07.491Z,5.21
2022-12-04T11:41:35.166Z,5.22
2022-12-04T11:44:02.929Z,5.26
2022-12-04T11:46:34.170Z,5.30
2022-12-04T11:49:03.599Z,5.29
2022-12-04T11:51:43.129Z,5.37
2022-12-04T11:54:32.719Z,5.38
2022-12-04T11:57:24.436Z,5.37
2022-12-04T12:00:17.760Z,5.41
2022-12-04T12:03:16.073Z,5.49
2022-12-04T12:05:55.567Z,5.49
2022-12-04T12:09:01.719Z,5.36
2022-12-04T12:11:41.270Z,5.31
2022-12-04T12:14:43.207Z,5.32
2022-12-04T12:17:25.847Z,5.31
2022-12-04T12:20:30.415Z,5.26
2022-12-04T12:22:57.891Z,5.21
2022-12-04T12:25:53.457Z,5.24
2022-12-04T12:28:46.760Z,5.25
2022-12-04T12:31:39.337Z,5.13
2022-12-04T12:34:34.720Z,5.17
2022-12-04T12:37:11.068Z,5.17
2022-12-04T12:40:15.356Z,5.17
2022-12-04T12:42:58.382Z,5.18
2022-12-04T12:46:14.358Z,5.17
2022-12-04T12:48:47.168Z,5.24
2022-12-04T12:51:30.710Z,5.27
2022-12-04T12:54:23.448Z,5.21
2022-12-04T12:56:56.633Z,5.18
2022-12-04T12:59:28.284Z,5.19
2022-12-04T13:02:20.121Z,5.22
2022-12-04T13:04:54.219Z,5.15
2022-12-04T13:07:40.764Z,5.20
2022-12-04T13:10:24.927Z,5.21
2022-12-04T13:12:58.106Z,5.22
2022-12-04T13:15:44.903Z,5.23
2022-12-04T13:18:27.699Z,5.20
2022-12-04T13:20:59.386Z,5.21
2022-12-04T13:24:24.097Z,5.18
2022-12-04T13:27:20.825Z,5.27
2022-12-04T13:30:03.225Z,5.22
2022-12-04T13:32:55.567Z,5.26
2022-12-04T13:35:51.877Z,5.24
2022-12-04T13:38:57.861Z,5.28
2022-12-04T13:41:27.925Z,5.29
2022-12-04T13:43:59.032Z,5.33
2022-12-04T13:46:30.814Z,5.23
2022-12-04T13:49:27.763Z,5.23
2022-12-04T13:51:57.323Z,5.23
2022-12-04T13:54:31.340Z,5.19
2022-12-04T13:57:15.801Z,5.18
2022-12-04T13:59:44.289Z,5.21
2022-12-04T14:02:23.196Z,5.23
2022-12-04T14:05:01.366Z,5.23
2022-12-04T14:07:37.791Z,5.24
2022-12-04T14:10:27.027Z,5.39
2022-12-04T14:13:07.476Z,5.43
2022-12-04T14:15:39.685Z,5.41
2022-12-04T14:18:20.845Z,5.41
2022-12-04T14:21:02.223Z,5.41
2022-12-04T14:23:39.645Z,5.43
2022-12-04T14:27:03.685Z,5.38
2022-12-04T14:29:47.698Z,5.48
2022-12-04T14:32:23.558Z,5.48
2022-12-04T14:34:51.266Z,5.53
2022-12-04T14:37:31.086Z,5.47
2022-12-04T14:40:00.348Z,5.52
2022-12-04T14:42:40.599Z,5.56
2022-12-04T14:45:28.101Z,5.56
2022-12-04T14:48:23.437Z,5.53
2022-12-04T14:51:09.382Z,5.57
2022-12-04T14:53:57.566Z,5.64
2022-12-04T14:57:17.596Z,5.68
2022-12-04T14:59:49.305Z,5.60
2022-12-04T15:02:41.923Z,5.51
2022-12-04T15:05:22.976Z,5.57
2022-12-04T15:07:53.839Z,5.59
2022-12-04T15:10:43.659Z,5.60
2022-12-04T15:13:16.024Z,5.56
2022-12-04T15:15:47.264Z,5.55
2022-12-04T15:18:17.166Z,5.43
2022-12-04T15:20:51.356Z,5.50
2022-12-04T15:23:28.262Z,5.47
2022-12-04T15:25:58.372Z,5.56
2022-12-04T15:28:48.346Z,5.54
2022-12-04T15:31:23.635Z,5.51
2022-12-04T15:33:56.566Z,5.50
2022-12-04T15:36:26.995Z,5.51
2022-12-04T15:38:54.776Z,5.50
2022-12-04T15:41:31.530Z,5.55
2022-12-04T15:43:59.765Z,5.57
2022-12-04T15:46:35.914Z,5.70
2022-12-04T15:49:25.007Z,5.60
2022-12-04T15:52:05.235Z,5.52
2022-12-04T15:54:36.365Z,5.70
2022-12-04T15:57:28.459Z,5.69
2022-12-04T16:00:01.299Z,5.69
2022-12-04T16:02:32.145Z,5.73
2022-12-04T16:05:22.631Z,5.73
2022-12-04T16:08:02.943Z,5.50
2022-12-04T16:10:34.232Z,5.62
2022-12-04T16:13:04.681Z,5.56
2022-12-04T16:15:41.664Z,5.61
2022-12-04T16:18:14.334Z,5.59
2022-12-04T16:20:41.927Z,5.59
2022-12-04T16:23:09.836Z,5.62
2022-12-04T16:25:37.347Z,5.61
2022-12-04T16:28:05.086Z,5.56
2022-12-04T16:30:35.013Z,5.62
2022-12-04T16:33:02.671Z,5.62
2022-12-04T16:35:31.642Z,5.64
2022-12-04T16:37:59.158Z,5.69
2022-12-04T16:40:26.744Z,5.72
2022-12-04T16:42:54.171Z,5.64
2022-12-04T16:45:35.469Z,5.67
2022-12-04T16:48:03.025Z,5.68
2022-12-04T16:50:30.543Z,5.73
2022-12-04T16:52:58.454Z,5.70
2022-12-04T16:55:35.838Z,5.78
2022-12-04T16:58:04.676Z,5.77
2022-12-04T17:00:32.464Z,5.73
2022-12-04T17:03:02.135Z,5.75
2022-12-04T17:05:32.152Z,5.80
2022-12-04T17:08:00.116Z,5.77
2022-12-04T17:10:29.540Z,5.80
2022-12-04T17:12:57.083Z,5.83
2022-12-04T17:15:24.905Z,5.80
2022-12-04T17:17:52.415Z,5.81
2022-12-04T17:20:21.652Z,5.73
2022-12-04T17:22:49.587Z,5.74
2022-12-04T17:25:18.429Z,5.68
2022-12-04T17:27:46.334Z,5.73
2022-12-04T17:30:14.647Z,5.78
2022-12-04T17:32:42.727Z,5.62
2022-12-04T17:35:12.795Z,5.62
2022-12-04T17:37:40.698Z,5.59
2022-12-04T17:40:14.427Z,5.68
2022-12-04T17:42:42.564Z,5.45
2022-12-04T17:45:11.665Z,5.42
2022-12-04T17:47:39.220Z,5.45
2022-12-04T17:50:07.550Z,5.52
2022-12-04T17:52:35.196Z,5.37
2022-12-04T17:55:03.064Z,5.45
2022-12-04T17:57:30.533Z,5.44
2022-12-04T17:59:58.054Z,5.43
2022-12-04T18:02:25.590Z,5.43
2022-12-04T18:04:55.551Z,5.42
2022-12-04T18:07:23.335Z,5.35
2022-12-04T18:09:50.813Z,5.24
2022-12-04T18:12:18.297Z,5.36
2022-12-04T18:14:46.493Z,5.25
2022-12-04T18:17:14.106Z,5.31
2022-12-04T18:19:41.773Z,5.33
2022-12-04T18:22:09.426Z,5.39
2022-12-04T18:24:37.004Z,5.48
2022-12-04T18:27:05.602Z,5.46
2022-12-04T18:29:33.151Z,5.50
2022-12-04T18:32:00.942Z,5.53
2022-12-04T18:34:28.585Z,5.53
2022-12-04T18:36:56.138Z,5.46
2022-12-04T18:39:25.172Z,5.53
2022-12-04T18:41:56.673Z,5.53
2022-12-04T18:44:25.074Z,5.46
2022-12-04T18:46:53.691Z,5.45
2022-12-04T18:49:21.267Z,5.40
2022-12-04T18:51:50.270Z,5.50
2022-12-04T18:54:21.183Z,5.55
2022-12-04T18:56:49.352Z,5.47
2022-12-04T18:59:19.937Z,5.47
2022-12-04T19:01:50.245Z,5.58
2022-12-04T19:04:19.668Z,5.48
2022-12-04T19:06:55.011Z,5.43
2022-12-04T19:09:47.353Z,5.47
2022-12-04T19:12:13.762Z,5.45
2022-12-04T19:14:41.346Z,5.43
2022-12-04T19:17:09.250Z,5.41
2022-12-04T19:19:37.116Z,5.47
2022-12-04T19:22:04.689Z,5.49
2022-12-04T19:24:32.469Z,5.50
2022-12-04T19:27:01.847Z,5.47
2022-12-04T19:29:29.572Z,5.55
2022-12-04T19:31:59.537Z,5.51
2022-12-04T19:34:27.449Z,5.51
2022-12-04T19:36:55.399Z,5.50
2022-12-04T19:39:22.968Z,5.45
2022-12-04T19:41:50.599Z,5.48
2022-12-04T19:47:05.833Z,5.49
2022-12-04T19:49:33.421Z,5.36
2022-12-04T19:52:00.954Z,5.38
2022-12-04T19:54:30.192Z,5.42
2022-12-04T19:56:57.714Z,5.50
2022-12-04T19:59:25.227Z,5.32
2022-12-04T20:01:52.922Z,5.35
2022-12-04T20:04:20.751Z,5.40
2022-12-04T20:06:48.313Z,5.40
2022-12-04T20:09:21.541Z,5.40
2022-12-04T20:11:49.342Z,5.29
2022-12-04T20:14:17.088Z,5.26
2022-12-04T20:16:45.001Z,5.33
2022-12-04T20:19:15.261Z,5.41
2022-12-04T20:21:43.822Z,5.40
2022-12-04T20:24:15.080Z,5.38
2022-12-04T20:26:45.004Z,5.48
2022-12-04T20:29:15.010Z,5.52
2022-12-04T20:31:44.653Z,5.50
2022-12-04T20:34:15.461Z,5.41
2022-12-04T20:36:45.264Z,5.50
2022-12-04T20:39:14.397Z,5.48
2022-12-04T20:41:42.724Z,5.43
2022-12-04T20:44:14.402Z,5.49
2022-12-04T20:46:42.806Z,5.51
2022-12-04T20:49:21.096Z,5.39
2022-12-04T20:51:51.072Z,5.41
2022-12-04T20:54:20.340Z,5.50
2022-12-04T20:56:49.239Z,5.47
2022-12-04T20:59:19.226Z,5.47
2022-12-04T21:01:49.111Z,5.61
2022-12-04T21:04:18.176Z,5.47
2022-12-04T21:06:47.135Z,5.47
2022-12-04T21:09:20.381Z,5.49
2022-12-04T21:11:55.512Z,5.59
2022-12-04T21:14:49.230Z,5.65
2022-12-04T21:17:19.429Z,5.51
2022-12-04T21:19:49.365Z,5.45
2022-12-04T21:22:18.749Z,5.55
2022-12-04T21:24:46.362Z,5.50
2022-12-04T21:27:20.420Z,5.42
2022-12-04T21:29:49.139Z,5.55
2022-12-04T21:32:17.839Z,5.62
2022-12-04T21:34:45.462Z,5.64
2022-12-04T21:37:13.300Z,5.59
2022-12-04T21:39:41.987Z,5.64
2022-12-04T21:42:28.198Z,5.61
2022-12-04T21:44:55.763Z,5.55
2022-12-04T21:47:23.370Z,5.48
2022-12-04T21:49:50.938Z,5.46
2022-12-04T21:52:19.381Z,5.51
2022-12-04T21:54:54.100Z,5.43
2022-12-04T21:57:22.507Z,5.40
2022-12-04T21:59:53.057Z,5.46
2022-12-04T22:02:20.892Z,5.39
2022-12-04T22:04:48.474Z,5.33
2022-12-04T22:07:15.986Z,5.25
2022-12-04T22:09:43.661Z,5.25
2022-12-04T22:12:26.830Z,5.25
2022-12-04T22:14:58.636Z,5.17
2022-12-04T22:17:29.511Z,5.32
2022-12-04T22:19:57.410Z,5.27
2022-12-04T22:22:25.076Z,5.25
2022-12-04T22:24:52.585Z,5.23
2022-12-04T22:27:20.041Z,5.18
2022-12-04T22:29:50.855Z,5.14
2022-12-04T22:32:29.740Z,5.17
2022-12-04T22:34:57.280Z,5.15
2022-12-04T22:37:25.180Z,5.20
2022-12-04T22:39:52.628Z,5.13
2022-12-04T22:42:20.170Z,5.12
2022-12-04T22:44:47.971Z,5.11
2022-12-04T22:47:15.501Z,5.05
2022-12-04T22:49:43.041Z,5.05
2022-12-04T22:52:10.781Z,5.18
2022-12-04T22:54:38.332Z,5.26
2022-12-04T22:57:05.811Z,5.16
2022-12-04T22:59:34.104Z,5.12
2022-12-04T23:02:01.651Z,5.17
2022-12-04T23:04:29.666Z,5.19
2022-12-04T23:06:57.210Z,5.25
2022-12-04T23:09:26.320Z,5.29
2022-12-04T23:11:55.056Z,5.36
2022-12-04T23:14:23.459Z,5.31
2022-12-04T23:16:51.238Z,5.14
2022-12-04T23:19:20.140Z,5.18
2022-12-04T23:21:55.031Z,5.13
2022-12-04T23:24:25.140Z,5.18
2022-12-04T23:26:52.811Z,5.25
2022-12-04T23:29:51.492Z,5.34
2022-12-04T23:32:08.103Z,5.20
2022-12-04T23:34:35.670Z,5.30
2022-12-04T23:37:03.129Z,5.42
2022-12-04T23:39:30.649Z,5.44
2022-12-04T23:41:58.108Z,5.29
2022-12-04T23:44:25.793Z,5.35
2022-12-04T23:46:53.428Z,5.20
2022-12-04T23:49:21.030Z,5.21
2022-12-04T23:51:48.499Z,5.17
2022-12-04T23:54:16.002Z,5.26
2022-12-04T23:56:44.160Z,5.24
2022-12-04T23:59:11.699Z,5.26
